Pagrindinis puslapis
METAR-TAF:

METAR-TAF

Oro uostai :

Bender Abasas, Iranas

platuma: 27-13N, ilguma: 056-22E, Aukštis: 10 m

Dabartinis oras

Ataskaita buvo paskelbta 22 minutes, ne 04:30 UTC
Vėjas 8 kt iš Šiaurės/Šiaurės Rytų
Temperatūra 28°C
Drėgmė 12%
Slėgis 1013 hPa
Matomumas 10 km arba daugiau
nėra debesų žemiau 1500 m ir nėra kamuolinių lietaus debesų

METAR: OIKB 210430Z 03008KT CAVOK 28/M04 Q1013 A2992

Laikas: 08:22 (04:52 UTC)

Prognozė

Ataskaita buvo paskelbta 5 valandos ir 52 minutes, ne 23:00 UTC
Prognozė galioja nuo 21 metu 00 UTC su 22 metu 06 UTC
Vėjas 8 kt iš Šiaurės/Šiaurės Vakarų
Matomumas: 8000 m
Tapsmas
nuo 21 metu 05 UTC su 21 metu 07 UTC
Vėjas 8 kt iš Pietų/Pietvakarių
Laikinai
nuo 21 metu 09 UTC su 21 metu 15 UTC
Vėjas 16 kt iš Vakarų
Tapsmas
nuo 21 metu 17 UTC su 21 metu 19 UTC
Vėjas 8 kt iš Šiaurės/Šiaurės Rytų

TAF: OIKB 202300Z 2100/2206 34008KT 8000 NSC BECMG 2105/2107 20008KT TEMPO 2109/2115 26016KT BECMG 2117/2119 03008KT

Orai ataskaitas ir orų prognozės (METAR, TAF).

turimą stotys yra geltonos ir raudonos taškus žemėlapyje.

Perkelti pele per norėdami pamatyti stoties vardą.

Tada spustelėkite, norėdami matyti oro stebėjimo ir prognozės.

Norėdami pakeisti žemėlapį: spustelėkite ant žalios mygtukų su juodo kryžiaus žemyn,; žalią mygtuką su brūkšneliu, jei norite nutolinti; arba žalių rodyklių gretimoms žemėlapius.


METAR-TAF: